sensor_id;sensor_type;location;lat;lon;timestamp;P1;durP1;ratioP1;P2;durP2;ratioP2
46675;SDS011;32412;51.478;5.694;2023-03-05T01:00:48;7.57;;;2.15;;
46675;SDS011;32412;51.478;5.694;2023-03-05T01:03:19;13.27;;;2.50;;
46675;SDS011;32412;51.478;5.694;2023-03-05T01:05:44;12.48;;;2.60;;
46675;SDS011;32412;51.478;5.694;2023-03-05T01:08:10;11.85;;;3.20;;
46675;SDS011;32412;51.478;5.694;2023-03-05T01:10:39;12.13;;;2.15;;
46675;SDS011;32412;51.478;5.694;2023-03-05T01:13:07;11.68;;;2.72;;
46675;SDS011;32412;51.478;5.694;2023-03-05T01:15:36;12.13;;;2.65;;
46675;SDS011;32412;51.478;5.694;2023-03-05T01:18:04;10.18;;;2.22;;
46675;SDS011;32412;51.478;5.694;2023-03-05T01:23:09;12.43;;;2.47;;
46675;SDS011;32412;51.478;5.694;2023-03-05T01:25:41;6.28;;;2.35;;
46675;SDS011;32412;51.478;5.694;2023-03-05T01:28:08;13.23;;;3.03;;
46675;SDS011;32412;51.478;5.694;2023-03-05T01:30:36;7.97;;;2.13;;
46675;SDS011;32412;51.478;5.694;2023-03-05T01:33:02;15.57;;;2.13;;
46675;SDS011;32412;51.478;5.694;2023-03-05T01:35:31;8.85;;;2.30;;
46675;SDS011;32412;51.478;5.694;2023-03-05T01:37:56;9.38;;;2.53;;
46675;SDS011;32412;51.478;5.694;2023-03-05T01:40:31;10.55;;;2.53;;
46675;SDS011;32412;51.478;5.694;2023-03-05T01:43:00;6.13;;;2.17;;
46675;SDS011;32412;51.478;5.694;2023-03-05T01:45:36;11.70;;;3.20;;
46675;SDS011;32412;51.478;5.694;2023-03-05T01:48:21;14.25;;;3.00;;
46675;SDS011;32412;51.478;5.694;2023-03-05T01:50:47;10.52;;;2.67;;
46675;SDS011;32412;51.478;5.694;2023-03-05T01:53:13;16.17;;;2.88;;
46675;SDS011;32412;51.478;5.694;2023-03-05T01:55:41;13.43;;;2.50;;
46675;SDS011;32412;51.478;5.694;2023-03-05T01:58:10;12.30;;;2.53;;
46675;SDS011;32412;51.478;5.694;2023-03-05T02:00:42;11.55;;;2.30;;
46675;SDS011;32412;51.478;5.694;2023-03-05T02:03:15;14.32;;;2.83;;
46675;SDS011;32412;51.478;5.694;2023-03-05T02:05:44;10.02;;;2.28;;
46675;SDS011;32412;51.478;5.694;2023-03-05T02:08:12;8.50;;;2.60;;
46675;SDS011;32412;51.478;5.694;2023-03-05T02:10:50;11.20;;;2.33;;
46675;SDS011;32412;51.478;5.694;2023-03-05T02:13:20;8.00;;;2.30;;
46675;SDS011;32412;51.478;5.694;2023-03-05T02:15:59;8.63;;;2.13;;
46675;SDS011;32412;51.478;5.694;2023-03-05T02:18:25;11.68;;;2.45;;
46675;SDS011;32412;51.478;5.694;2023-03-05T02:23:36;11.40;;;2.15;;
46675;SDS011;32412;51.478;5.694;2023-03-05T02:26:03;6.55;;;2.28;;
46675;SDS011;32412;51.478;5.694;2023-03-05T02:35:09;15.75;;;2.80;;
46675;SDS011;32412;51.478;5.694;2023-03-05T02:37:38;9.63;;;2.08;;
46675;SDS011;32412;51.478;5.694;2023-03-05T02:40:07;8.02;;;2.53;;
46675;SDS011;32412;51.478;5.694;2023-03-05T02:42:34;8.90;;;2.40;;
46675;SDS011;32412;51.478;5.694;2023-03-05T02:45:02;17.05;;;2.88;;
46675;SDS011;32412;51.478;5.694;2023-03-05T02:47:28;11.55;;;2.30;;
46675;SDS011;32412;51.478;5.694;2023-03-05T02:49:54;8.80;;;2.45;;
46675;SDS011;32412;51.478;5.694;2023-03-05T02:52:30;10.00;;;2.08;;
46675;SDS011;32412;51.478;5.694;2023-03-05T02:55:04;10.63;;;2.50;;
46675;SDS011;32412;51.478;5.694;2023-03-05T02:57:41;9.93;;;2.47;;
46675;SDS011;32412;51.478;5.694;2023-03-05T03:00:09;14.02;;;2.38;;
46675;SDS011;32412;51.478;5.694;2023-03-05T03:02:40;11.25;;;2.30;;
46675;SDS011;32412;51.478;5.694;2023-03-05T03:05:11;9.48;;;2.38;;
46675;SDS011;32412;51.478;5.694;2023-03-05T03:07:37;10.55;;;2.47;;
46675;SDS011;32412;51.478;5.694;2023-03-05T03:10:06;9.85;;;2.35;;
46675;SDS011;32412;51.478;5.694;2023-03-05T03:12:41;11.35;;;2.40;;
46675;SDS011;32412;51.478;5.694;2023-03-05T03:15:09;5.70;;;2.00;;
46675;SDS011;32412;51.478;5.694;2023-03-05T03:17:42;8.88;;;2.40;;
46675;SDS011;32412;51.478;5.694;2023-03-05T03:20:15;7.40;;;2.17;;
46675;SDS011;32412;51.478;5.694;2023-03-05T03:25:15;12.68;;;2.40;;
46675;SDS011;32412;51.478;5.694;2023-03-05T03:27:45;13.63;;;2.15;;
46675;SDS011;32412;51.478;5.694;2023-03-05T03:30:14;8.95;;;2.40;;
46675;SDS011;32412;51.478;5.694;2023-03-05T03:32:44;11.35;;;2.47;;
46675;SDS011;32412;51.478;5.694;2023-03-05T03:35:13;10.30;;;2.15;;
46675;SDS011;32412;51.478;5.694;2023-03-05T03:37:59;6.82;;;2.05;;
46675;SDS011;32412;51.478;5.694;2023-03-05T03:40:30;8.27;;;2.38;;
46675;SDS011;32412;51.478;5.694;2023-03-05T03:42:58;12.95;;;2.45;;
46675;SDS011;32412;51.478;5.694;2023-03-05T03:48:09;8.18;;;2.42;;
46675;SDS011;32412;51.478;5.694;2023-03-05T03:50:38;5.45;;;2.38;;
46675;SDS011;32412;51.478;5.694;2023-03-05T03:53:13;7.00;;;2.00;;
46675;SDS011;32412;51.478;5.694;2023-03-05T03:56:06;7.75;;;2.10;;
46675;SDS011;32412;51.478;5.694;2023-03-05T03:58:32;10.48;;;2.45;;
46675;SDS011;32412;51.478;5.694;2023-03-05T04:01:00;5.63;;;1.80;;
46675;SDS011;32412;51.478;5.694;2023-03-05T04:03:32;9.02;;;1.90;;
46675;SDS011;32412;51.478;5.694;2023-03-05T04:06:01;10.45;;;2.20;;
46675;SDS011;32412;51.478;5.694;2023-03-05T04:11:01;9.02;;;1.90;;
46675;SDS011;32412;51.478;5.694;2023-03-05T04:13:38;9.43;;;2.20;;
46675;SDS011;32412;51.478;5.694;2023-03-05T04:16:07;5.13;;;1.92;;
46675;SDS011;32412;51.478;5.694;2023-03-05T04:18:36;12.77;;;2.55;;
46675;SDS011;32412;51.478;5.694;2023-03-05T06:52:51;17.73;;;5.07;;
46675;SDS011;32412;51.478;5.694;2023-03-05T07:05:42;13.02;;;4.90;;
46675;SDS011;32412;51.478;5.694;2023-03-05T07:08:08;13.15;;;5.35;;
46675;SDS011;32412;51.478;5.694;2023-03-05T07:10:40;19.58;;;5.47;;
46675;SDS011;32412;51.478;5.694;2023-03-05T07:13:11;18.63;;;5.72;;
46675;SDS011;32412;51.478;5.694;2023-03-05T07:15:38;20.50;;;5.80;;
46675;SDS011;32412;51.478;5.694;2023-03-05T08:25:23;11.10;;;5.22;;
46675;SDS011;32412;51.478;5.694;2023-03-05T08:27:49;8.93;;;5.28;;
46675;SDS011;32412;51.478;5.694;2023-03-05T08:30:16;12.90;;;5.13;;
46675;SDS011;32412;51.478;5.694;2023-03-05T08:32:47;9.68;;;5.47;;
46675;SDS011;32412;51.478;5.694;2023-03-05T08:35:13;7.88;;;5.13;;
46675;SDS011;32412;51.478;5.694;2023-03-05T08:37:39;10.50;;;5.53;;
46675;SDS011;32412;51.478;5.694;2023-03-05T08:40:05;7.80;;;5.05;;
46675;SDS011;32412;51.478;5.694;2023-03-05T08:42:31;13.25;;;5.50;;
46675;SDS011;32412;51.478;5.694;2023-03-05T08:44:57;10.70;;;5.35;;
46675;SDS011;32412;51.478;5.694;2023-03-05T08:47:22;10.65;;;5.20;;
46675;SDS011;32412;51.478;5.694;2023-03-05T08:49:50;9.68;;;4.78;;
46675;SDS011;32412;51.478;5.694;2023-03-05T08:52:19;8.15;;;4.22;;
46675;SDS011;32412;51.478;5.694;2023-03-05T08:54:46;10.10;;;4.55;;
46675;SDS011;32412;51.478;5.694;2023-03-05T09:54:54;3.60;;;1.40;;
46675;SDS011;32412;51.478;5.694;2023-03-05T09:57:34;6.00;;;1.60;;
46675;SDS011;32412;51.478;5.694;2023-03-05T10:00:18;3.30;;;1.50;;
46675;SDS011;32412;51.478;5.694;2023-03-05T10:03:18;5.45;;;1.40;;
46675;SDS011;32412;51.478;5.694;2023-03-05T10:05:59;3.08;;;1.40;;
46675;SDS011;32412;51.478;5.694;2023-03-05T10:08:52;2.53;;;1.20;;
46675;SDS011;32412;51.478;5.694;2023-03-05T10:11:39;2.45;;;1.17;;
46675;SDS011;32412;51.478;5.694;2023-03-05T10:14:34;3.00;;;1.50;;
46675;SDS011;32412;51.478;5.694;2023-03-05T10:19:52;3.97;;;1.33;;
46675;SDS011;32412;51.478;5.694;2023-03-05T10:28:48;4.60;;;1.40;;
46675;SDS011;32412;51.478;5.694;2023-03-05T10:31:39;2.05;;;0.65;;
46675;SDS011;32412;51.478;5.694;2023-03-05T10:45:31;2.83;;;0.90;;
46675;SDS011;32412;51.478;5.694;2023-03-05T10:48:04;2.85;;;1.02;;
46675;SDS011;32412;51.478;5.694;2023-03-05T10:50:51;2.10;;;0.60;;
46675;SDS011;32412;51.478;5.694;2023-03-05T10:55:54;2.05;;;0.93;;
46675;SDS011;32412;51.478;5.694;2023-03-05T10:58:29;1.83;;;0.80;;
46675;SDS011;32412;51.478;5.694;2023-03-05T11:01:02;2.65;;;0.90;;
46675;SDS011;32412;51.478;5.694;2023-03-05T11:09:37;1.88;;;0.95;;
46675;SDS011;32412;51.478;5.694;2023-03-05T11:17:32;1.67;;;0.90;;
46675;SDS011;32412;51.478;5.694;2023-03-05T11:28:27;1.65;;;0.77;;
46675;SDS011;32412;51.478;5.694;2023-03-05T11:34:04;1.08;;;0.80;;
46675;SDS011;32412;51.478;5.694;2023-03-05T11:39:26;1.73;;;0.93;;
46675;SDS011;32412;51.478;5.694;2023-03-05T11:42:00;1.05;;;0.50;;
46675;SDS011;32412;51.478;5.694;2023-03-05T11:44:49;0.82;;;0.43;;
46675;SDS011;32412;51.478;5.694;2023-03-05T11:49:53;2.05;;;0.63;;
46675;SDS011;32412;51.478;5.694;2023-03-05T11:52:39;2.45;;;0.73;;
46675;SDS011;32412;51.478;5.694;2023-03-05T12:00:31;1.80;;;1.00;;
46675;SDS011;32412;51.478;5.694;2023-03-05T12:03:04;0.82;;;0.70;;
46675;SDS011;32412;51.478;5.694;2023-03-05T12:05:36;1.95;;;0.98;;
46675;SDS011;32412;51.478;5.694;2023-03-05T12:08:09;1.38;;;0.63;;
46675;SDS011;32412;51.478;5.694;2023-03-05T12:10:57;1.63;;;1.05;;
46675;SDS011;32412;51.478;5.694;2023-03-05T12:13:40;1.15;;;0.70;;
46675;SDS011;32412;51.478;5.694;2023-03-05T13:26:37;1.08;;;0.57;;
46675;SDS011;32412;51.478;5.694;2023-03-05T13:29:21;0.73;;;0.70;;
46675;SDS011;32412;51.478;5.694;2023-03-05T13:31:55;2.53;;;0.85;;
46675;SDS011;32412;51.478;5.694;2023-03-05T13:34:34;1.40;;;0.90;;
46675;SDS011;32412;51.478;5.694;2023-03-05T13:37:18;2.10;;;0.90;;
46675;SDS011;32412;51.478;5.694;2023-03-05T13:40:12;3.45;;;0.90;;
46675;SDS011;32412;51.478;5.694;2023-03-05T13:49:28;3.53;;;0.95;;
46675;SDS011;32412;51.478;5.694;2023-03-05T13:52:27;1.35;;;0.85;;
46675;SDS011;32412;51.478;5.694;2023-03-05T13:55:13;2.00;;;1.10;;
46675;SDS011;32412;51.478;5.694;2023-03-05T13:57:48;1.83;;;1.45;;
46675;SDS011;32412;51.478;5.694;2023-03-05T14:00:37;2.15;;;0.90;;
46675;SDS011;32412;51.478;5.694;2023-03-05T14:03:09;2.22;;;0.93;;
46675;SDS011;32412;51.478;5.694;2023-03-05T14:05:44;1.98;;;1.15;;
46675;SDS011;32412;51.478;5.694;2023-03-05T14:08:22;1.52;;;0.50;;
46675;SDS011;32412;51.478;5.694;2023-03-05T14:10:51;3.97;;;1.15;;
46675;SDS011;32412;51.478;5.694;2023-03-05T14:13:21;2.28;;;0.80;;
46675;SDS011;32412;51.478;5.694;2023-03-05T14:16:08;0.98;;;0.77;;
46675;SDS011;32412;51.478;5.694;2023-03-05T14:18:58;1.50;;;1.02;;
46675;SDS011;32412;51.478;5.694;2023-03-05T14:21:31;3.40;;;0.90;;
46675;SDS011;32412;51.478;5.694;2023-03-05T14:24:13;3.47;;;0.80;;
46675;SDS011;32412;51.478;5.694;2023-03-05T14:27:14;1.38;;;0.80;;
46675;SDS011;32412;51.478;5.694;2023-03-05T14:29:44;4.72;;;0.95;;
46675;SDS011;32412;51.478;5.694;2023-03-05T14:32:18;3.40;;;1.65;;
46675;SDS011;32412;51.478;5.694;2023-03-05T14:35:18;2.50;;;1.15;;
46675;SDS011;32412;51.478;5.694;2023-03-05T14:37:49;1.17;;;1.08;;
46675;SDS011;32412;51.478;5.694;2023-03-05T14:40:32;2.25;;;1.05;;
46675;SDS011;32412;51.478;5.694;2023-03-05T14:43:05;3.97;;;2.65;;
46675;SDS011;32412;51.478;5.694;2023-03-05T14:45:37;3.92;;;1.10;;
46675;SDS011;32412;51.478;5.694;2023-03-05T14:48:08;1.40;;;0.93;;
46675;SDS011;32412;51.478;5.694;2023-03-05T14:50:46;3.17;;;1.10;;
46675;SDS011;32412;51.478;5.694;2023-03-05T14:53:21;2.47;;;1.20;;
46675;SDS011;32412;51.478;5.694;2023-03-05T14:55:51;1.30;;;1.20;;
46675;SDS011;32412;51.478;5.694;2023-03-05T14:58:22;1.45;;;1.10;;
46675;SDS011;32412;51.478;5.694;2023-03-05T17:01:16;13.07;;;7.22;;
46675;SDS011;32412;51.478;5.694;2023-03-05T17:03:58;4.18;;;2.67;;
46675;SDS011;32412;51.478;5.694;2023-03-05T17:06:26;4.82;;;2.80;;
46675;SDS011;32412;51.478;5.694;2023-03-05T17:09:14;4.28;;;2.95;;
46675;SDS011;32412;51.478;5.694;2023-03-05T17:11:47;6.25;;;3.25;;
46675;SDS011;32412;51.478;5.694;2023-03-05T18:05:38;12.25;;;6.90;;
46675;SDS011;32412;51.478;5.694;2023-03-05T18:11:04;7.90;;;4.68;;
46675;SDS011;32412;51.478;5.694;2023-03-05T21:00:52;6.57;;;2.72;;
46675;SDS011;32412;51.478;5.694;2023-03-05T21:03:26;4.47;;;2.90;;
46675;SDS011;32412;51.478;5.694;2023-03-05T21:28:43;5.50;;;2.83;;
46675;SDS011;32412;51.478;5.694;2023-03-05T21:41:49;4.00;;;2.60;;
46675;SDS011;32412;51.478;5.694;2023-03-05T21:44:14;5.15;;;2.42;;
46675;SDS011;32412;51.478;5.694;2023-03-05T21:46:41;5.43;;;2.83;;
46675;SDS011;32412;51.478;5.694;2023-03-05T21:49:07;4.70;;;2.72;;
46675;SDS011;32412;51.478;5.694;2023-03-05T21:51:42;8.23;;;2.58;;
46675;SDS011;32412;51.478;5.694;2023-03-05T21:54:43;4.93;;;2.45;;
46675;SDS011;32412;51.478;5.694;2023-03-05T21:57:09;5.05;;;2.40;;
46675;SDS011;32412;51.478;5.694;2023-03-05T21:59:38;4.47;;;2.72;;
46675;SDS011;32412;51.478;5.694;2023-03-05T22:02:05;6.60;;;2.42;;
46675;SDS011;32412;51.478;5.694;2023-03-05T22:04:39;6.65;;;3.08;;
46675;SDS011;32412;51.478;5.694;2023-03-05T22:07:05;7.22;;;2.75;;
46675;SDS011;32412;51.478;5.694;2023-03-05T22:09:31;4.63;;;2.50;;
46675;SDS011;32412;51.478;5.694;2023-03-05T22:11:56;7.28;;;2.72;;
46675;SDS011;32412;51.478;5.694;2023-03-05T22:14:22;8.43;;;3.05;;
46675;SDS011;32412;51.478;5.694;2023-03-05T22:16:48;5.07;;;2.30;;
46675;SDS011;32412;51.478;5.694;2023-03-05T22:19:17;5.03;;;2.55;;
46675;SDS011;32412;51.478;5.694;2023-03-05T22:21:43;6.22;;;1.88;;
46675;SDS011;32412;51.478;5.694;2023-03-05T22:24:09;3.80;;;1.98;;
46675;SDS011;32412;51.478;5.694;2023-03-05T22:26:36;7.10;;;2.33;;
46675;SDS011;32412;51.478;5.694;2023-03-05T22:29:04;3.28;;;1.98;;
46675;SDS011;32412;51.478;5.694;2023-03-05T22:31:32;3.35;;;2.10;;
46675;SDS011;32412;51.478;5.694;2023-03-05T22:34:00;5.63;;;2.30;;
46675;SDS011;32412;51.478;5.694;2023-03-05T22:36:26;5.32;;;2.70;;
46675;SDS011;32412;51.478;5.694;2023-03-05T22:38:52;3.83;;;2.35;;
46675;SDS011;32412;51.478;5.694;2023-03-05T22:41:18;5.22;;;2.20;;
46675;SDS011;32412;51.478;5.694;2023-03-05T22:43:45;4.25;;;2.40;;
46675;SDS011;32412;51.478;5.694;2023-03-05T22:46:12;7.65;;;2.88;;
46675;SDS011;32412;51.478;5.694;2023-03-05T22:48:43;4.95;;;2.78;;
46675;SDS011;32412;51.478;5.694;2023-03-05T22:51:09;4.85;;;2.70;;
46675;SDS011;32412;51.478;5.694;2023-03-05T22:53:35;5.10;;;2.80;;
46675;SDS011;32412;51.478;5.694;2023-03-05T22:56:09;6.13;;;3.00;;
46675;SDS011;32412;51.478;5.694;2023-03-05T22:58:38;6.50;;;3.10;;
46675;SDS011;32412;51.478;5.694;2023-03-05T23:01:11;4.63;;;2.88;;
46675;SDS011;32412;51.478;5.694;2023-03-05T23:03:39;5.55;;;3.17;;
46675;SDS011;32412;51.478;5.694;2023-03-05T23:06:05;9.77;;;3.55;;
46675;SDS011;32412;51.478;5.694;2023-03-05T23:08:32;7.15;;;4.00;;
46675;SDS011;32412;51.478;5.694;2023-03-05T23:10:58;6.35;;;3.67;;
46675;SDS011;32412;51.478;5.694;2023-03-05T23:13:25;8.45;;;4.63;;
46675;SDS011;32412;51.478;5.694;2023-03-05T23:15:51;8.48;;;4.97;;
46675;SDS011;32412;51.478;5.694;2023-03-05T23:18:17;8.23;;;5.20;;
46675;SDS011;32412;51.478;5.694;2023-03-05T23:20:42;7.95;;;5.45;;
46675;SDS011;32412;51.478;5.694;2023-03-05T23:23:11;8.27;;;5.28;;
46675;SDS011;32412;51.478;5.694;2023-03-05T23:32:42;10.15;;;5.70;;
46675;SDS011;32412;51.478;5.694;2023-03-05T23:35:10;10.00;;;5.90;;
46675;SDS011;32412;51.478;5.694;2023-03-05T23:37:39;10.13;;;5.60;;
46675;SDS011;32412;51.478;5.694;2023-03-05T23:40:07;11.05;;;5.85;;
46675;SDS011;32412;51.478;5.694;2023-03-05T23:42:36;9.40;;;5.90;;
46675;SDS011;32412;51.478;5.694;2023-03-05T23:45:03;10.40;;;6.28;;
46675;SDS011;32412;51.478;5.694;2023-03-05T23:47:32;10.70;;;5.63;;
46675;SDS011;32412;51.478;5.694;2023-03-05T23:50:00;11.10;;;5.93;;
46675;SDS011;32412;51.478;5.694;2023-03-05T23:52:29;12.40;;;5.78;;
46675;SDS011;32412;51.478;5.694;2023-03-05T23:54:55;8.95;;;5.05;;
46675;SDS011;32412;51.478;5.694;2023-03-05T23:57:20;9.07;;;4.70;;
46675;SDS011;32412;51.478;5.694;2023-03-05T23:59:46;8.90;;;4.85;;
